createdAt,value
2018-06-18T00:01:53.550Z,19.10
2018-06-18T00:04:20.934Z,19.20
2018-06-18T00:06:48.352Z,19.20
2018-06-18T00:09:15.743Z,19.20
2018-06-18T00:11:43.659Z,19.20
2018-06-18T00:14:11.499Z,19.20
2018-06-18T00:16:38.914Z,19.20
2018-06-18T00:19:06.304Z,19.20
2018-06-18T00:21:33.992Z,19.20
2018-06-18T00:24:01.547Z,19.20
2018-06-18T00:26:28.956Z,19.30
2018-06-18T00:31:23.907Z,19.20
2018-06-18T00:33:51.338Z,19.20
2018-06-18T00:36:18.735Z,19.30
2018-06-18T00:38:46.156Z,19.30
2018-06-18T00:41:13.550Z,19.20
2018-06-18T00:43:40.943Z,19.30
2018-06-18T00:46:08.315Z,19.30
2018-06-18T00:48:35.706Z,19.30
2018-06-18T00:51:03.110Z,19.30
2018-06-18T00:53:30.501Z,19.30
2018-06-18T00:56:09.039Z,19.30
2018-06-18T00:58:37.026Z,19.30
2018-06-18T01:01:04.428Z,19.30
2018-06-18T01:03:31.839Z,19.30
2018-06-18T01:05:59.211Z,19.30
2018-06-18T01:08:26.608Z,19.30
2018-06-18T01:10:54.030Z,19.30
2018-06-18T01:13:21.440Z,19.30
2018-06-18T01:15:48.880Z,19.30
2018-06-18T01:18:16.299Z,19.30
2018-06-18T01:20:43.699Z,19.20
2018-06-18T01:24:19.394Z,19.30
2018-06-18T01:26:46.880Z,19.30
2018-06-18T01:29:14.254Z,19.20
2018-06-18T01:31:41.667Z,19.20
2018-06-18T01:34:26.782Z,19.20
2018-06-18T01:36:54.574Z,19.20
2018-06-18T01:39:22.623Z,19.20
2018-06-18T01:41:50.380Z,19.30
2018-06-18T01:44:17.951Z,19.20
2018-06-18T01:46:45.328Z,19.20
2018-06-18T01:49:12.711Z,19.20
2018-06-18T01:51:40.134Z,19.30
2018-06-18T01:54:07.506Z,19.20
2018-06-18T01:56:34.875Z,19.20
2018-06-18T01:59:02.264Z,19.30
2018-06-18T02:01:30.049Z,19.30
2018-06-18T02:03:57.497Z,19.30
2018-06-18T02:06:24.911Z,19.30
2018-06-18T02:08:52.298Z,19.30
2018-06-18T02:11:19.698Z,19.30
2018-06-18T02:13:47.109Z,19.30
2018-06-18T02:16:14.490Z,19.30
2018-06-18T02:18:41.891Z,19.30
2018-06-18T02:21:09.499Z,19.30
2018-06-18T02:23:36.912Z,19.30
2018-06-18T02:26:04.328Z,19.30
2018-06-18T02:28:37.308Z,19.30
2018-06-18T02:31:10.517Z,19.30
2018-06-18T02:33:43.624Z,19.30
2018-06-18T02:36:16.579Z,19.30
2018-06-18T02:38:49.903Z,19.30
2018-06-18T02:41:17.279Z,19.30
2018-06-18T02:43:44.690Z,19.30
2018-06-18T02:46:12.136Z,19.30
2018-06-18T02:48:39.515Z,19.30
2018-06-18T02:51:06.921Z,19.30
2018-06-18T02:53:34.315Z,19.30
2018-06-18T02:56:01.775Z,19.30
2018-06-18T02:58:29.158Z,19.30
2018-06-18T03:00:56.549Z,19.30
2018-06-18T03:03:23.943Z,19.20
2018-06-18T03:05:51.389Z,19.20
2018-06-18T03:08:18.787Z,19.20
2018-06-18T03:10:46.212Z,19.20
2018-06-18T03:13:13.607Z,19.20
2018-06-18T03:15:41.075Z,19.10
2018-06-18T03:18:13.099Z,19.10
2018-06-18T03:20:46.427Z,19.00
2018-06-18T03:23:19.594Z,19.00
2018-06-18T03:25:52.770Z,19.00
2018-06-18T03:28:26.023Z,19.00
2018-06-18T03:30:53.428Z,19.00
2018-06-18T03:33:20.855Z,19.00
2018-06-18T03:35:48.257Z,19.00
2018-06-18T03:38:15.631Z,19.00
2018-06-18T03:40:43.047Z,19.00
2018-06-18T03:43:10.420Z,19.00
2018-06-18T03:45:37.800Z,19.00
2018-06-18T03:48:07.637Z,19.00
2018-06-18T03:50:35.279Z,19.00
2018-06-18T03:53:02.676Z,19.00
2018-06-18T03:55:40.266Z,19.10
2018-06-18T03:58:08.207Z,19.10
2018-06-18T04:00:46.431Z,19.10
2018-06-18T04:03:19.485Z,19.20
2018-06-18T04:05:52.610Z,19.20
2018-06-18T04:08:20.006Z,19.20
2018-06-18T04:10:53.294Z,19.20
2018-06-18T04:13:20.703Z,19.20
2018-06-18T04:15:48.111Z,19.30
2018-06-18T04:18:15.519Z,19.30
2018-06-18T04:20:46.872Z,19.30
2018-06-18T04:23:14.520Z,19.30
2018-06-18T04:25:41.933Z,19.30
2018-06-18T04:28:09.519Z,19.40
2018-06-18T04:30:36.907Z,19.40
2018-06-18T04:33:04.955Z,19.40
2018-06-18T04:35:32.342Z,19.40
2018-06-18T04:37:59.759Z,19.40
2018-06-18T04:40:27.167Z,19.40
2018-06-18T04:43:00.320Z,19.50
2018-06-18T04:45:33.528Z,19.50
2018-06-18T04:48:06.745Z,19.60
2018-06-18T04:50:39.870Z,19.60
2018-06-18T04:53:07.296Z,19.70
2018-06-18T04:55:34.693Z,19.70
2018-06-18T04:58:02.190Z,19.70
2018-06-18T05:01:05.789Z,19.80
2018-06-18T05:06:00.709Z,19.80
2018-06-18T05:10:42.956Z,19.90
2018-06-18T05:13:10.392Z,19.90
2018-06-18T05:15:39.232Z,20.00
2018-06-18T05:18:06.922Z,20.00
2018-06-18T05:20:34.349Z,20.00
2018-06-18T05:23:01.797Z,20.00
2018-06-18T05:25:30.395Z,20.10
2018-06-18T05:27:57.799Z,20.10
2018-06-18T05:30:27.855Z,20.20
2018-06-18T05:32:55.317Z,20.20
2018-06-18T05:35:22.755Z,20.20
2018-06-18T05:38:13.411Z,20.30
2018-06-18T05:40:40.830Z,20.30
2018-06-18T05:43:08.422Z,20.30
2018-06-18T05:45:35.891Z,20.30
2018-06-18T05:48:03.422Z,20.30
2018-06-18T05:50:30.973Z,20.40
2018-06-18T05:52:58.365Z,20.40
2018-06-18T05:55:25.805Z,20.40
2018-06-18T05:57:53.257Z,20.50
2018-06-18T06:00:20.778Z,20.50
2018-06-18T06:02:48.205Z,20.50
2018-06-18T06:05:15.654Z,20.60
2018-06-18T06:10:10.555Z,20.70
2018-06-18T06:12:38.017Z,20.80
2018-06-18T06:15:05.536Z,20.90
2018-06-18T06:17:32.999Z,21.00
2018-06-18T06:20:00.435Z,21.10
2018-06-18T06:22:27.951Z,21.10
2018-06-18T06:24:55.556Z,21.20
2018-06-18T06:27:22.959Z,21.30
2018-06-18T06:29:50.375Z,21.40
2018-06-18T06:32:17.825Z,21.50
2018-06-18T06:34:49.647Z,21.50
2018-06-18T06:37:17.171Z,21.60
2018-06-18T06:39:44.625Z,21.70
2018-06-18T06:42:15.683Z,21.80
2018-06-18T06:44:43.174Z,21.90
2018-06-18T06:47:10.575Z,22.00
2018-06-18T06:49:38.039Z,22.10
2018-06-18T06:52:05.536Z,22.20
2018-06-18T06:54:32.975Z,22.30
2018-06-18T06:57:00.441Z,22.40
2018-06-18T06:59:27.888Z,22.50
2018-06-18T07:01:55.415Z,22.50
2018-06-18T07:04:22.843Z,22.70
2018-06-18T07:06:50.345Z,22.80
2018-06-18T07:09:17.798Z,22.90
2018-06-18T07:11:45.499Z,23.10
2018-06-18T07:14:12.911Z,23.20
2018-06-18T07:16:40.556Z,23.40
2018-06-18T07:19:07.976Z,23.50
2018-06-18T07:21:35.588Z,23.70
2018-06-18T07:24:03.039Z,23.80
2018-06-18T07:26:30.453Z,23.80
2018-06-18T07:28:57.878Z,23.90
2018-06-18T07:31:25.276Z,23.90
2018-06-18T07:33:52.686Z,23.90
2018-06-18T07:36:20.413Z,23.80
2018-06-18T07:38:47.844Z,23.80
2018-06-18T07:41:15.241Z,23.80
2018-06-18T07:43:42.659Z,23.80
2018-06-18T07:48:37.430Z,23.90
2018-06-18T07:51:04.892Z,24.00
2018-06-18T07:53:32.339Z,24.10
2018-06-18T07:55:59.767Z,24.10
2018-06-18T07:58:27.169Z,24.20
2018-06-18T08:00:54.581Z,24.20
2018-06-18T08:03:22.013Z,24.20
2018-06-18T08:05:49.436Z,24.20
2018-06-18T08:08:16.823Z,24.20
2018-06-18T08:10:44.231Z,24.20
2018-06-18T08:13:11.611Z,24.30
2018-06-18T08:15:39.018Z,24.20
2018-06-18T08:18:06.516Z,24.30
2018-06-18T08:20:33.903Z,24.20
2018-06-18T08:23:01.380Z,24.20
2018-06-18T08:25:28.785Z,24.20
2018-06-18T08:27:56.191Z,24.20
2018-06-18T08:30:23.615Z,24.10
2018-06-18T08:32:51.060Z,24.00
2018-06-18T08:35:18.480Z,24.00
2018-06-18T08:37:45.937Z,23.90
2018-06-18T08:40:13.376Z,23.90
2018-06-18T08:42:40.867Z,23.90
2018-06-18T08:45:08.312Z,23.90
2018-06-18T08:47:35.723Z,24.00
2018-06-18T08:50:09.030Z,24.10
2018-06-18T08:52:42.050Z,24.20
2018-06-18T08:55:15.272Z,24.30
2018-06-18T08:57:48.497Z,24.30
2018-06-18T09:00:21.515Z,24.30
2018-06-18T09:02:54.767Z,24.30
2018-06-18T09:05:28.011Z,24.20
2018-06-18T09:08:06.020Z,24.20
2018-06-18T09:10:33.749Z,24.10
2018-06-18T09:13:01.146Z,24.10
2018-06-18T09:15:28.575Z,24.00
2018-06-18T09:17:55.988Z,24.00
2018-06-18T09:20:23.393Z,24.00
2018-06-18T09:22:50.823Z,24.00
2018-06-18T09:25:18.263Z,23.90
2018-06-18T09:30:13.099Z,23.80
2018-06-18T09:32:40.597Z,23.80
2018-06-18T09:35:07.943Z,23.70
2018-06-18T09:37:35.343Z,23.70
2018-06-18T09:40:02.897Z,23.70
2018-06-18T09:42:30.699Z,23.60
2018-06-18T09:44:58.115Z,23.60
2018-06-18T09:47:25.521Z,23.50
2018-06-18T09:49:58.726Z,23.50
2018-06-18T09:52:31.944Z,23.40
2018-06-18T09:55:05.098Z,23.40
2018-06-18T09:57:38.103Z,23.40
2018-06-18T10:00:09.589Z,23.40
2018-06-18T10:02:36.949Z,23.30
2018-06-18T10:05:04.334Z,23.30
2018-06-18T10:07:31.747Z,23.30
2018-06-18T10:09:59.148Z,23.20
2018-06-18T10:12:26.575Z,23.20
2018-06-18T10:14:54.013Z,23.10
2018-06-18T10:17:21.435Z,23.00
2018-06-18T10:19:49.891Z,22.90
2018-06-18T10:22:17.341Z,22.80
2018-06-18T10:24:44.800Z,22.80
2018-06-18T10:27:12.243Z,22.70
2018-06-18T10:29:39.677Z,22.70
2018-06-18T10:32:12.850Z,22.70
2018-06-18T10:34:46.031Z,22.70
2018-06-18T10:38:23.088Z,22.70
2018-06-18T10:40:56.339Z,22.70
2018-06-18T10:43:28.691Z,22.70
2018-06-18T10:45:56.432Z,22.70
2018-06-18T10:48:24.269Z,22.70
2018-06-18T10:50:51.821Z,22.70
2018-06-18T10:53:19.298Z,22.80
2018-06-18T10:55:46.748Z,22.80
2018-06-18T10:58:14.224Z,22.90
2018-06-18T11:00:41.705Z,23.00
2018-06-18T11:03:09.119Z,23.00
2018-06-18T11:05:42.349Z,23.10
2018-06-18T11:08:10.371Z,23.10
2018-06-18T11:10:37.784Z,23.10
2018-06-18T11:13:05.250Z,23.10
2018-06-18T11:15:32.712Z,23.20
2018-06-18T11:19:03.723Z,23.20
2018-06-18T11:21:36.928Z,23.20
2018-06-18T11:24:10.191Z,23.20
2018-06-18T11:26:43.332Z,23.20
2018-06-18T11:29:10.730Z,23.20
2018-06-18T11:31:38.140Z,23.20
2018-06-18T11:34:05.739Z,23.20
2018-06-18T11:36:33.307Z,23.20
2018-06-18T11:39:00.739Z,23.30
2018-06-18T11:41:28.179Z,23.30
2018-06-18T11:43:55.638Z,23.30
2018-06-18T11:46:23.066Z,23.20
2018-06-18T11:48:50.504Z,23.20
2018-06-18T11:51:17.964Z,23.20
2018-06-18T11:53:45.394Z,23.20
2018-06-18T11:56:12.886Z,23.20
2018-06-18T11:58:46.130Z,23.20
2018-06-18T12:01:20.164Z,23.20
2018-06-18T12:06:26.591Z,23.10
2018-06-18T12:08:59.880Z,23.10
2018-06-18T12:11:27.363Z,23.10
2018-06-18T12:13:54.778Z,23.10
2018-06-18T12:16:22.212Z,23.10
2018-06-18T12:18:49.674Z,23.00
2018-06-18T12:21:17.135Z,23.00
2018-06-18T12:23:44.553Z,23.00
2018-06-18T12:26:11.978Z,23.10
2018-06-18T12:28:39.516Z,23.10
2018-06-18T12:31:07.034Z,23.30
2018-06-18T12:33:34.530Z,23.40
2018-06-18T12:36:01.944Z,23.50
2018-06-18T12:38:29.380Z,23.50
2018-06-18T12:40:56.807Z,23.60
2018-06-18T12:43:26.385Z,23.60
2018-06-18T12:45:59.998Z,23.60
2018-06-18T12:48:33.088Z,23.60
2018-06-18T12:51:06.339Z,23.60
2018-06-18T12:53:39.579Z,23.60
2018-06-18T12:56:12.782Z,23.60
2018-06-18T12:58:40.215Z,23.60
2018-06-18T13:01:09.214Z,23.50
2018-06-18T13:03:36.683Z,23.50
2018-06-18T13:06:04.223Z,23.50
2018-06-18T13:08:31.679Z,23.60
2018-06-18T13:10:59.122Z,23.80
2018-06-18T13:13:26.610Z,24.00
2018-06-18T13:15:54.266Z,24.10
2018-06-18T13:18:21.716Z,24.20
2018-06-18T13:20:49.157Z,24.40
2018-06-18T13:23:16.589Z,24.60
2018-06-18T13:25:44.056Z,24.60
2018-06-18T13:28:14.314Z,24.70
2018-06-18T13:30:41.732Z,24.70
2018-06-18T13:33:09.686Z,24.80
2018-06-18T13:35:37.090Z,24.80
2018-06-18T13:38:10.385Z,24.90
2018-06-18T13:40:43.611Z,24.90
2018-06-18T13:43:16.775Z,25.00
2018-06-18T13:45:45.966Z,25.00
2018-06-18T13:48:18.974Z,25.00
2018-06-18T13:50:46.391Z,25.00
2018-06-18T13:53:13.787Z,25.00
2018-06-18T13:55:41.198Z,25.00
2018-06-18T13:58:08.654Z,25.00
2018-06-18T14:00:36.111Z,25.00
2018-06-18T14:03:03.525Z,25.00
2018-06-18T14:05:31.811Z,25.00
2018-06-18T14:07:59.215Z,25.00
2018-06-18T14:10:26.656Z,24.90
2018-06-18T14:12:56.105Z,24.90
2018-06-18T14:15:23.571Z,24.90
2018-06-18T14:17:50.929Z,24.80
2018-06-18T14:20:21.268Z,24.90
2018-06-18T14:22:48.721Z,24.90
2018-06-18T14:25:16.339Z,24.90
2018-06-18T14:27:43.724Z,24.90
2018-06-18T14:30:17.021Z,25.00
2018-06-18T14:35:23.620Z,25.00
2018-06-18T14:37:56.816Z,25.00
2018-06-18T14:40:24.261Z,24.90
2018-06-18T14:45:19.155Z,24.80
2018-06-18T14:47:46.581Z,24.80
2018-06-18T14:50:13.975Z,24.70
2018-06-18T14:52:41.624Z,24.70
2018-06-18T14:55:09.969Z,24.70
2018-06-18T14:57:37.379Z,24.70
2018-06-18T15:00:14.014Z,24.80
2018-06-18T15:02:41.523Z,24.80
2018-06-18T15:05:09.343Z,24.90
2018-06-18T15:07:36.748Z,25.00
2018-06-18T15:10:04.207Z,25.00
2018-06-18T15:12:35.204Z,25.10
2018-06-18T15:16:12.230Z,25.20
2018-06-18T15:18:39.643Z,25.20
2018-06-18T15:21:07.146Z,25.20
2018-06-18T15:23:34.505Z,25.20
2018-06-18T15:26:01.939Z,25.20
2018-06-18T15:28:29.323Z,25.20
2018-06-18T15:30:56.744Z,25.20
2018-06-18T15:33:24.192Z,25.20
2018-06-18T15:35:51.912Z,25.20
2018-06-18T15:38:19.395Z,25.30
2018-06-18T15:40:46.703Z,25.40
2018-06-18T15:43:14.076Z,25.40
2018-06-18T15:45:41.508Z,25.50
2018-06-18T15:48:08.961Z,25.50
2018-06-18T15:50:36.410Z,25.50
2018-06-18T15:53:03.875Z,25.60
2018-06-18T15:55:31.264Z,25.60
2018-06-18T15:57:58.681Z,25.60
2018-06-18T16:00:26.235Z,25.60
2018-06-18T16:02:53.755Z,25.60
2018-06-18T16:05:21.163Z,25.60
2018-06-18T16:07:48.620Z,25.50
2018-06-18T16:10:16.082Z,25.50
2018-06-18T16:12:43.529Z,25.50
2018-06-18T16:15:10.963Z,25.50
2018-06-18T16:17:38.402Z,25.50
2018-06-18T16:20:05.867Z,25.50
2018-06-18T16:22:33.319Z,25.60
2018-06-18T16:25:00.801Z,25.70
2018-06-18T16:27:28.151Z,25.80
2018-06-18T16:29:55.586Z,25.90
2018-06-18T16:32:23.007Z,26.00
2018-06-18T16:34:50.495Z,26.00
2018-06-18T16:37:17.919Z,26.10
2018-06-18T16:39:45.335Z,26.10
2018-06-18T16:42:12.760Z,26.10
2018-06-18T16:44:40.191Z,26.00
2018-06-18T16:47:07.625Z,25.90
2018-06-18T16:49:35.043Z,25.80
2018-06-18T16:52:02.509Z,25.80
2018-06-18T16:54:29.936Z,25.80
2018-06-18T16:56:57.356Z,25.70
2018-06-18T16:59:24.940Z,25.70
2018-06-18T17:01:52.346Z,25.70
2018-06-18T17:04:19.751Z,25.60
2018-06-18T17:06:47.228Z,25.50
2018-06-18T17:09:14.659Z,25.40
2018-06-18T17:11:42.076Z,25.30
2018-06-18T17:14:09.463Z,25.20
2018-06-18T17:16:36.907Z,25.10
2018-06-18T17:19:04.491Z,25.00
2018-06-18T17:21:31.945Z,24.90
2018-06-18T17:23:59.358Z,24.70
2018-06-18T17:26:26.813Z,24.70
2018-06-18T17:28:54.301Z,24.60
2018-06-18T17:31:21.701Z,24.60
2018-06-18T17:33:49.104Z,24.50
2018-06-18T17:36:18.016Z,24.40
2018-06-18T17:38:45.440Z,24.40
2018-06-18T17:41:12.864Z,24.20
2018-06-18T17:43:40.272Z,24.20
2018-06-18T17:46:07.712Z,24.20
2018-06-18T17:48:35.156Z,24.10
2018-06-18T17:51:02.563Z,24.00
2018-06-18T17:53:30.549Z,24.00
2018-06-18T17:55:57.977Z,23.90
2018-06-18T17:58:25.386Z,23.90
2018-06-18T18:03:20.229Z,23.70
2018-06-18T18:05:47.652Z,23.60
2018-06-18T18:08:15.062Z,23.60
2018-06-18T18:10:42.591Z,23.60
2018-06-18T18:13:10.718Z,23.60
2018-06-18T18:15:38.292Z,23.70
2018-06-18T18:18:05.684Z,23.80
2018-06-18T18:20:33.077Z,24.00
2018-06-18T18:23:00.858Z,24.10
2018-06-18T18:25:28.526Z,24.30
2018-06-18T18:27:55.998Z,24.50
2018-06-18T18:30:23.450Z,24.50
2018-06-18T18:32:50.917Z,24.70
2018-06-18T18:35:18.326Z,24.80
2018-06-18T18:37:45.832Z,24.80
2018-06-18T18:40:13.408Z,24.70
2018-06-18T18:42:41.731Z,24.80
2018-06-18T18:45:09.182Z,24.70
2018-06-18T18:47:39.675Z,24.70
2018-06-18T18:50:07.151Z,24.70
2018-06-18T18:52:34.603Z,24.70
2018-06-18T18:55:44.342Z,24.70
2018-06-18T18:58:23.380Z,24.70
2018-06-18T19:00:51.330Z,24.60
2018-06-18T19:03:24.062Z,24.60
2018-06-18T19:05:52.207Z,24.60
2018-06-18T19:08:29.800Z,24.30
2018-06-18T19:10:58.786Z,24.60
2018-06-18T19:13:29.599Z,24.60
2018-06-18T19:15:57.711Z,24.50
2018-06-18T19:23:23.398Z,24.20
2018-06-18T19:25:50.827Z,24.10
2018-06-18T19:28:18.251Z,23.90
2018-06-18T19:30:49.540Z,23.70
2018-06-18T19:33:19.415Z,23.50
2018-06-18T19:35:46.827Z,23.40
2018-06-18T19:38:14.248Z,23.20
2018-06-18T19:40:41.662Z,23.00
2018-06-18T19:43:09.089Z,22.90
2018-06-18T19:45:39.892Z,22.70
2018-06-18T19:48:17.419Z,22.60
2018-06-18T19:50:44.839Z,22.50
2018-06-18T19:53:12.280Z,22.30
2018-06-18T19:55:39.713Z,22.20
2018-06-18T19:58:07.145Z,22.10
2018-06-18T20:00:40.277Z,22.00
2018-06-18T20:03:07.697Z,21.80
2018-06-18T20:05:35.123Z,21.80
2018-06-18T20:08:05.247Z,21.70
2018-06-18T20:10:32.707Z,21.60
2018-06-18T20:13:00.152Z,21.60
2018-06-18T20:15:27.635Z,21.50
2018-06-18T20:17:55.028Z,21.50
2018-06-18T20:20:22.440Z,21.40
2018-06-18T20:22:49.878Z,21.40
2018-06-18T20:25:21.354Z,21.30
2018-06-18T20:27:48.747Z,21.30
2018-06-18T20:30:16.193Z,21.20
2018-06-18T20:32:43.603Z,21.20
2018-06-18T20:35:25.364Z,21.10
2018-06-18T20:37:52.766Z,21.10
2018-06-18T20:40:22.101Z,21.00
2018-06-18T20:42:49.550Z,21.00
2018-06-18T20:45:17.127Z,20.90
2018-06-18T20:47:44.556Z,20.80
2018-06-18T20:50:11.983Z,20.80
2018-06-18T20:52:40.342Z,20.70
2018-06-18T20:55:07.765Z,20.70
2018-06-18T20:57:35.188Z,20.60
2018-06-18T21:00:03.338Z,20.60
2018-06-18T21:02:30.872Z,20.50
2018-06-18T21:04:58.295Z,20.40
2018-06-18T21:07:25.759Z,20.40
2018-06-18T21:09:53.249Z,20.30
2018-06-18T21:12:20.679Z,20.30
2018-06-18T21:14:48.100Z,20.20
2018-06-18T21:17:15.551Z,20.20
2018-06-18T21:19:42.964Z,20.10
2018-06-18T21:22:10.367Z,20.10
2018-06-18T21:24:39.256Z,20.00
2018-06-18T21:27:06.772Z,20.00
2018-06-18T21:29:34.203Z,20.00
2018-06-18T21:32:01.694Z,19.90
2018-06-18T21:34:29.158Z,19.90
2018-06-18T21:36:56.623Z,19.90
2018-06-18T21:39:24.013Z,19.80
2018-06-18T21:41:51.400Z,19.80
2018-06-18T21:44:34.231Z,19.80
2018-06-18T21:47:01.675Z,19.70
2018-06-18T21:49:29.051Z,19.70
2018-06-18T21:51:56.704Z,19.70
2018-06-18T21:54:24.106Z,19.60
2018-06-18T21:56:51.514Z,19.60
2018-06-18T21:59:18.968Z,19.60
2018-06-18T22:01:46.444Z,19.60
2018-06-18T22:04:15.006Z,19.50
2018-06-18T22:06:42.483Z,19.50
2018-06-18T22:09:13.611Z,19.40
2018-06-18T22:11:42.007Z,19.40
2018-06-18T22:14:09.435Z,19.40
2018-06-18T22:16:37.096Z,19.30
2018-06-18T22:19:04.757Z,19.30
2018-06-18T22:21:32.163Z,19.30
2018-06-18T22:23:59.789Z,19.20
2018-06-18T22:26:27.212Z,19.20
2018-06-18T22:28:54.633Z,19.20
2018-06-18T22:31:22.049Z,19.10
2018-06-18T22:33:49.451Z,19.10
2018-06-18T22:36:16.863Z,19.00
2018-06-18T22:38:44.271Z,19.00
2018-06-18T22:43:39.229Z,19.00
2018-06-18T22:46:06.628Z,18.90
2018-06-18T22:48:34.046Z,18.90
2018-06-18T22:51:01.496Z,18.90
2018-06-18T22:53:28.942Z,18.80
2018-06-18T22:55:56.443Z,18.80
2018-06-18T22:58:23.878Z,18.80
2018-06-18T23:00:53.471Z,18.70
2018-06-18T23:03:20.890Z,18.70
2018-06-18T23:05:48.355Z,18.70
2018-06-18T23:08:15.770Z,18.60
2018-06-18T23:10:43.166Z,18.60
2018-06-18T23:13:10.656Z,18.60
2018-06-18T23:15:38.112Z,18.60
2018-06-18T23:18:05.585Z,18.50
2018-06-18T23:20:33.056Z,18.50
2018-06-18T23:23:00.493Z,18.50
2018-06-18T23:25:27.903Z,18.50
2018-06-18T23:27:55.331Z,18.50
2018-06-18T23:30:22.741Z,18.50
2018-06-18T23:32:50.199Z,18.50
2018-06-18T23:35:17.611Z,18.40
2018-06-18T23:37:45.084Z,18.40
2018-06-18T23:40:12.527Z,18.40
2018-06-18T23:42:39.943Z,18.40
2018-06-18T23:45:07.338Z,18.40
2018-06-18T23:47:35.036Z,18.40
2018-06-18T23:50:02.503Z,18.40
2018-06-18T23:52:29.963Z,18.40
2018-06-18T23:54:57.403Z,18.40
2018-06-18T23:57:24.847Z,18.40
2018-06-18T23:59:52.295Z,18.40
